sensor_id;sensor_type;location;lat;lon;timestamp;P1;durP1;ratioP1;P2;durP2;ratioP2
4652;SDS011;9900;48.738;9.306;2023-11-21T00:00:13;11.07;;;3.13;;
4652;SDS011;9900;48.738;9.306;2023-11-21T00:02:43;12.00;;;3.37;;
4652;SDS011;9900;48.738;9.306;2023-11-21T00:05:14;9.00;;;3.33;;
4652;SDS011;9900;48.738;9.306;2023-11-21T00:07:43;11.30;;;3.60;;
4652;SDS011;9900;48.738;9.306;2023-11-21T00:10:12;11.73;;;3.40;;
4652;SDS011;9900;48.738;9.306;2023-11-21T00:12:43;9.70;;;3.87;;
4652;SDS011;9900;48.738;9.306;2023-11-21T00:15:13;14.90;;;3.60;;
4652;SDS011;9900;48.738;9.306;2023-11-21T00:17:42;13.23;;;2.77;;
4652;SDS011;9900;48.738;9.306;2023-11-21T00:20:11;6.53;;;2.80;;
4652;SDS011;9900;48.738;9.306;2023-11-21T00:22:41;8.43;;;3.27;;
4652;SDS011;9900;48.738;9.306;2023-11-21T00:25:11;12.13;;;3.20;;
4652;SDS011;9900;48.738;9.306;2023-11-21T00:27:42;8.93;;;2.47;;
4652;SDS011;9900;48.738;9.306;2023-11-21T00:30:12;11.00;;;3.30;;
4652;SDS011;9900;48.738;9.306;2023-11-21T00:32:43;8.90;;;3.57;;
4652;SDS011;9900;48.738;9.306;2023-11-21T00:35:12;13.77;;;3.57;;
4652;SDS011;9900;48.738;9.306;2023-11-21T00:37:41;9.17;;;3.30;;
4652;SDS011;9900;48.738;9.306;2023-11-21T00:40:10;8.47;;;3.20;;
4652;SDS011;9900;48.738;9.306;2023-11-21T00:42:40;7.63;;;3.20;;
4652;SDS011;9900;48.738;9.306;2023-11-21T00:45:09;7.03;;;3.20;;
4652;SDS011;9900;48.738;9.306;2023-11-21T00:47:40;7.40;;;3.23;;
4652;SDS011;9900;48.738;9.306;2023-11-21T00:50:10;11.60;;;3.57;;
4652;SDS011;9900;48.738;9.306;2023-11-21T00:52:38;13.27;;;3.40;;
4652;SDS011;9900;48.738;9.306;2023-11-21T00:55:08;12.30;;;3.37;;
4652;SDS011;9900;48.738;9.306;2023-11-21T00:57:37;7.70;;;2.90;;
4652;SDS011;9900;48.738;9.306;2023-11-21T01:00:07;6.57;;;3.07;;
4652;SDS011;9900;48.738;9.306;2023-11-21T01:02:42;9.07;;;3.67;;
4652;SDS011;9900;48.738;9.306;2023-11-21T01:05:11;11.33;;;3.53;;
4652;SDS011;9900;48.738;9.306;2023-11-21T01:07:40;15.53;;;3.87;;
4652;SDS011;9900;48.738;9.306;2023-11-21T01:10:09;15.10;;;3.20;;
4652;SDS011;9900;48.738;9.306;2023-11-21T01:12:38;5.50;;;2.90;;
4652;SDS011;9900;48.738;9.306;2023-11-21T01:15:07;5.30;;;3.40;;
4652;SDS011;9900;48.738;9.306;2023-11-21T01:17:36;7.80;;;2.97;;
4652;SDS011;9900;48.738;9.306;2023-11-21T01:20:07;8.50;;;3.70;;
4652;SDS011;9900;48.738;9.306;2023-11-21T01:22:39;7.93;;;3.60;;
4652;SDS011;9900;48.738;9.306;2023-11-21T01:25:09;8.37;;;3.30;;
4652;SDS011;9900;48.738;9.306;2023-11-21T01:27:38;7.57;;;3.07;;
4652;SDS011;9900;48.738;9.306;2023-11-21T01:30:07;5.33;;;2.80;;
4652;SDS011;9900;48.738;9.306;2023-11-21T01:32:38;8.77;;;3.20;;
4652;SDS011;9900;48.738;9.306;2023-11-21T01:35:09;8.40;;;3.00;;
4652;SDS011;9900;48.738;9.306;2023-11-21T01:37:38;9.10;;;3.20;;
4652;SDS011;9900;48.738;9.306;2023-11-21T01:40:10;7.63;;;2.60;;
4652;SDS011;9900;48.738;9.306;2023-11-21T01:42:42;4.73;;;1.73;;
4652;SDS011;9900;48.738;9.306;2023-11-21T01:45:11;5.53;;;2.67;;
4652;SDS011;9900;48.738;9.306;2023-11-21T01:47:41;3.27;;;2.10;;
4652;SDS011;9900;48.738;9.306;2023-11-21T01:50:13;4.40;;;2.40;;
4652;SDS011;9900;48.738;9.306;2023-11-21T01:52:43;3.87;;;2.30;;
4652;SDS011;9900;48.738;9.306;2023-11-21T01:55:12;6.63;;;2.43;;
4652;SDS011;9900;48.738;9.306;2023-11-21T01:57:54;7.27;;;1.70;;
4652;SDS011;9900;48.738;9.306;2023-11-21T02:00:23;4.43;;;1.97;;
4652;SDS011;9900;48.738;9.306;2023-11-21T02:02:53;5.70;;;2.07;;
4652;SDS011;9900;48.738;9.306;2023-11-21T02:05:23;4.17;;;1.70;;
4652;SDS011;9900;48.738;9.306;2023-11-21T02:07:53;4.60;;;2.10;;
4652;SDS011;9900;48.738;9.306;2023-11-21T02:10:23;4.13;;;1.93;;
4652;SDS011;9900;48.738;9.306;2023-11-21T02:12:52;5.80;;;1.80;;
4652;SDS011;9900;48.738;9.306;2023-11-21T02:15:21;5.30;;;1.80;;
4652;SDS011;9900;48.738;9.306;2023-11-21T02:17:54;4.30;;;1.70;;
4652;SDS011;9900;48.738;9.306;2023-11-21T02:20:27;4.50;;;1.80;;
4652;SDS011;9900;48.738;9.306;2023-11-21T02:22:58;5.50;;;1.67;;
4652;SDS011;9900;48.738;9.306;2023-11-21T02:25:29;8.30;;;2.00;;
4652;SDS011;9900;48.738;9.306;2023-11-21T02:27:59;10.17;;;2.20;;
4652;SDS011;9900;48.738;9.306;2023-11-21T02:30:29;5.90;;;2.20;;
4652;SDS011;9900;48.738;9.306;2023-11-21T02:32:59;5.37;;;1.70;;
4652;SDS011;9900;48.738;9.306;2023-11-21T02:35:29;5.23;;;1.70;;
4652;SDS011;9900;48.738;9.306;2023-11-21T02:38:00;7.70;;;1.87;;
4652;SDS011;9900;48.738;9.306;2023-11-21T02:40:29;2.47;;;1.70;;
4652;SDS011;9900;48.738;9.306;2023-11-21T02:42:58;5.60;;;2.00;;
4652;SDS011;9900;48.738;9.306;2023-11-21T02:45:27;2.60;;;1.43;;
4652;SDS011;9900;48.738;9.306;2023-11-21T02:47:56;4.40;;;1.70;;
4652;SDS011;9900;48.738;9.306;2023-11-21T02:50:26;9.93;;;2.30;;
4652;SDS011;9900;48.738;9.306;2023-11-21T02:52:55;4.80;;;2.13;;
4652;SDS011;9900;48.738;9.306;2023-11-21T02:55:28;2.70;;;1.60;;
4652;SDS011;9900;48.738;9.306;2023-11-21T02:57:58;6.47;;;1.80;;
4652;SDS011;9900;48.738;9.306;2023-11-21T03:00:27;4.50;;;1.80;;
4652;SDS011;9900;48.738;9.306;2023-11-21T03:02:56;3.10;;;1.20;;
4652;SDS011;9900;48.738;9.306;2023-11-21T03:05:25;2.20;;;1.50;;
4652;SDS011;9900;48.738;9.306;2023-11-21T03:07:54;3.20;;;1.37;;
4652;SDS011;9900;48.738;9.306;2023-11-21T03:10:22;3.20;;;1.10;;
4652;SDS011;9900;48.738;9.306;2023-11-21T03:12:53;4.87;;;1.43;;
4652;SDS011;9900;48.738;9.306;2023-11-21T03:15:21;3.30;;;1.17;;
4652;SDS011;9900;48.738;9.306;2023-11-21T03:17:50;2.30;;;1.47;;
4652;SDS011;9900;48.738;9.306;2023-11-21T03:20:19;4.50;;;1.20;;
4652;SDS011;9900;48.738;9.306;2023-11-21T03:22:48;2.00;;;1.00;;
4652;SDS011;9900;48.738;9.306;2023-11-21T03:25:17;5.60;;;1.30;;
4652;SDS011;9900;48.738;9.306;2023-11-21T03:27:45;3.87;;;1.23;;
4652;SDS011;9900;48.738;9.306;2023-11-21T03:30:16;2.20;;;1.30;;
4652;SDS011;9900;48.738;9.306;2023-11-21T03:32:45;3.70;;;1.10;;
4652;SDS011;9900;48.738;9.306;2023-11-21T03:35:13;1.93;;;0.90;;
4652;SDS011;9900;48.738;9.306;2023-11-21T03:37:42;3.57;;;1.20;;
4652;SDS011;9900;48.738;9.306;2023-11-21T03:40:11;2.87;;;1.00;;
4652;SDS011;9900;48.738;9.306;2023-11-21T03:42:41;3.17;;;1.10;;
4652;SDS011;9900;48.738;9.306;2023-11-21T03:45:10;8.33;;;1.47;;
4652;SDS011;9900;48.738;9.306;2023-11-21T03:47:42;4.27;;;1.80;;
4652;SDS011;9900;48.738;9.306;2023-11-21T03:50:11;4.20;;;1.20;;
4652;SDS011;9900;48.738;9.306;2023-11-21T03:52:40;4.17;;;1.20;;
4652;SDS011;9900;48.738;9.306;2023-11-21T03:55:08;4.10;;;1.43;;
4652;SDS011;9900;48.738;9.306;2023-11-21T03:57:38;6.90;;;1.20;;
4652;SDS011;9900;48.738;9.306;2023-11-21T04:00:07;2.63;;;1.20;;
4652;SDS011;9900;48.738;9.306;2023-11-21T04:02:37;3.20;;;1.20;;
4652;SDS011;9900;48.738;9.306;2023-11-21T04:05:08;2.80;;;1.00;;
4652;SDS011;9900;48.738;9.306;2023-11-21T04:07:37;2.53;;;1.13;;
4652;SDS011;9900;48.738;9.306;2023-11-21T04:10:07;5.43;;;1.37;;
4652;SDS011;9900;48.738;9.306;2023-11-21T04:12:37;2.77;;;1.30;;
4652;SDS011;9900;48.738;9.306;2023-11-21T04:15:06;4.87;;;1.47;;
4652;SDS011;9900;48.738;9.306;2023-11-21T04:17:36;4.03;;;1.20;;
4652;SDS011;9900;48.738;9.306;2023-11-21T04:20:06;1.17;;;0.97;;
4652;SDS011;9900;48.738;9.306;2023-11-21T04:22:38;5.10;;;1.43;;
4652;SDS011;9900;48.738;9.306;2023-11-21T04:25:13;2.80;;;1.00;;
4652;SDS011;9900;48.738;9.306;2023-11-21T04:27:44;6.10;;;1.27;;
4652;SDS011;9900;48.738;9.306;2023-11-21T04:30:13;1.37;;;1.03;;
4652;SDS011;9900;48.738;9.306;2023-11-21T04:32:42;1.30;;;0.87;;
4652;SDS011;9900;48.738;9.306;2023-11-21T04:35:12;1.00;;;0.90;;
4652;SDS011;9900;48.738;9.306;2023-11-21T04:37:42;3.63;;;0.83;;
4652;SDS011;9900;48.738;9.306;2023-11-21T04:40:11;2.00;;;0.73;;
4652;SDS011;9900;48.738;9.306;2023-11-21T04:42:40;0.97;;;0.80;;
4652;SDS011;9900;48.738;9.306;2023-11-21T04:45:09;0.87;;;0.70;;
4652;SDS011;9900;48.738;9.306;2023-11-21T04:47:40;3.57;;;1.00;;
4652;SDS011;9900;48.738;9.306;2023-11-21T04:50:10;2.00;;;0.80;;
4652;SDS011;9900;48.738;9.306;2023-11-21T04:52:39;3.50;;;1.10;;
4652;SDS011;9900;48.738;9.306;2023-11-21T04:55:09;2.40;;;0.90;;
4652;SDS011;9900;48.738;9.306;2023-11-21T04:57:38;5.47;;;1.00;;
4652;SDS011;9900;48.738;9.306;2023-11-21T05:00:09;3.30;;;1.10;;
4652;SDS011;9900;48.738;9.306;2023-11-21T05:02:39;1.03;;;0.90;;
4652;SDS011;9900;48.738;9.306;2023-11-21T05:05:09;2.60;;;1.20;;
4652;SDS011;9900;48.738;9.306;2023-11-21T05:07:38;2.33;;;1.03;;
4652;SDS011;9900;48.738;9.306;2023-11-21T05:10:08;1.77;;;1.00;;
4652;SDS011;9900;48.738;9.306;2023-11-21T05:12:40;1.13;;;0.90;;
4652;SDS011;9900;48.738;9.306;2023-11-21T05:15:10;1.73;;;1.20;;
4652;SDS011;9900;48.738;9.306;2023-11-21T05:17:42;5.10;;;1.23;;
4652;SDS011;9900;48.738;9.306;2023-11-21T05:20:12;4.43;;;1.23;;
4652;SDS011;9900;48.738;9.306;2023-11-21T05:22:41;2.40;;;1.30;;
4652;SDS011;9900;48.738;9.306;2023-11-21T05:25:12;3.77;;;1.10;;
4652;SDS011;9900;48.738;9.306;2023-11-21T05:27:41;2.23;;;1.20;;
4652;SDS011;9900;48.738;9.306;2023-11-21T05:30:10;2.50;;;1.23;;
4652;SDS011;9900;48.738;9.306;2023-11-21T05:32:40;3.83;;;1.30;;
4652;SDS011;9900;48.738;9.306;2023-11-21T05:35:10;5.50;;;1.60;;
4652;SDS011;9900;48.738;9.306;2023-11-21T05:37:43;2.43;;;1.53;;
4652;SDS011;9900;48.738;9.306;2023-11-21T05:40:14;4.10;;;1.60;;
4652;SDS011;9900;48.738;9.306;2023-11-21T05:42:43;4.07;;;1.80;;
4652;SDS011;9900;48.738;9.306;2023-11-21T05:45:12;2.93;;;1.60;;
4652;SDS011;9900;48.738;9.306;2023-11-21T05:47:42;7.10;;;2.23;;
4652;SDS011;9900;48.738;9.306;2023-11-21T05:50:14;6.00;;;2.80;;
4652;SDS011;9900;48.738;9.306;2023-11-21T05:52:44;11.10;;;5.07;;
4652;SDS011;9900;48.738;9.306;2023-11-21T05:55:15;7.57;;;1.97;;
4652;SDS011;9900;48.738;9.306;2023-11-21T05:57:44;4.60;;;1.30;;
4652;SDS011;9900;48.738;9.306;2023-11-21T06:00:13;4.87;;;1.80;;
4652;SDS011;9900;48.738;9.306;2023-11-21T06:02:47;4.33;;;1.77;;
4652;SDS011;9900;48.738;9.306;2023-11-21T06:05:18;3.80;;;1.43;;
4652;SDS011;9900;48.738;9.306;2023-11-21T06:07:47;4.83;;;1.23;;
4652;SDS011;9900;48.738;9.306;2023-11-21T06:10:17;3.07;;;1.23;;
4652;SDS011;9900;48.738;9.306;2023-11-21T06:12:47;2.83;;;1.57;;
4652;SDS011;9900;48.738;9.306;2023-11-21T06:15:16;4.33;;;1.30;;
4652;SDS011;9900;48.738;9.306;2023-11-21T06:17:46;1.70;;;1.40;;
4652;SDS011;9900;48.738;9.306;2023-11-21T06:20:19;2.40;;;1.33;;
4652;SDS011;9900;48.738;9.306;2023-11-21T06:22:50;2.93;;;1.50;;
4652;SDS011;9900;48.738;9.306;2023-11-21T06:25:21;4.10;;;1.27;;
4652;SDS011;9900;48.738;9.306;2023-11-21T06:27:50;2.23;;;1.30;;
4652;SDS011;9900;48.738;9.306;2023-11-21T06:30:20;1.70;;;1.40;;
4652;SDS011;9900;48.738;9.306;2023-11-21T06:32:49;4.50;;;1.40;;
4652;SDS011;9900;48.738;9.306;2023-11-21T06:35:18;1.70;;;1.27;;
4652;SDS011;9900;48.738;9.306;2023-11-21T06:37:47;2.37;;;1.40;;
4652;SDS011;9900;48.738;9.306;2023-11-21T06:40:17;1.63;;;1.20;;
4652;SDS011;9900;48.738;9.306;2023-11-21T06:42:49;4.93;;;1.20;;
4652;SDS011;9900;48.738;9.306;2023-11-21T06:45:18;5.03;;;1.80;;
4652;SDS011;9900;48.738;9.306;2023-11-21T06:47:48;4.40;;;1.60;;
4652;SDS011;9900;48.738;9.306;2023-11-21T06:50:17;3.63;;;1.70;;
4652;SDS011;9900;48.738;9.306;2023-11-21T06:52:47;2.40;;;1.37;;
4652;SDS011;9900;48.738;9.306;2023-11-21T06:55:16;3.90;;;1.80;;
4652;SDS011;9900;48.738;9.306;2023-11-21T06:57:45;2.70;;;1.87;;
4652;SDS011;9900;48.738;9.306;2023-11-21T07:00:16;2.23;;;1.57;;
4652;SDS011;9900;48.738;9.306;2023-11-21T07:02:46;9.93;;;5.60;;
4652;SDS011;9900;48.738;9.306;2023-11-21T07:05:15;6.80;;;3.37;;
4652;SDS011;9900;48.738;9.306;2023-11-21T07:07:48;6.37;;;2.00;;
4652;SDS011;9900;48.738;9.306;2023-11-21T07:10:18;3.40;;;1.40;;
4652;SDS011;9900;48.738;9.306;2023-11-21T07:12:46;8.43;;;2.43;;
4652;SDS011;9900;48.738;9.306;2023-11-21T07:15:17;3.00;;;1.40;;
4652;SDS011;9900;48.738;9.306;2023-11-21T07:17:46;5.83;;;1.43;;
4652;SDS011;9900;48.738;9.306;2023-11-21T07:20:16;2.93;;;1.50;;
4652;SDS011;9900;48.738;9.306;2023-11-21T07:22:45;3.33;;;1.20;;
4652;SDS011;9900;48.738;9.306;2023-11-21T07:25:14;7.77;;;1.63;;
4652;SDS011;9900;48.738;9.306;2023-11-21T07:27:43;7.23;;;1.73;;
4652;SDS011;9900;48.738;9.306;2023-11-21T07:30:12;5.53;;;2.10;;
4652;SDS011;9900;48.738;9.306;2023-11-21T07:32:43;10.33;;;2.47;;
4652;SDS011;9900;48.738;9.306;2023-11-21T07:35:14;3.20;;;1.60;;
4652;SDS011;9900;48.738;9.306;2023-11-21T07:37:43;9.40;;;2.37;;
4652;SDS011;9900;48.738;9.306;2023-11-21T07:40:11;6.70;;;1.70;;
4652;SDS011;9900;48.738;9.306;2023-11-21T07:42:40;1.97;;;1.57;;
4652;SDS011;9900;48.738;9.306;2023-11-21T07:45:10;4.50;;;1.80;;
4652;SDS011;9900;48.738;9.306;2023-11-21T07:47:39;11.83;;;2.07;;
4652;SDS011;9900;48.738;9.306;2023-11-21T07:50:10;5.93;;;2.10;;
4652;SDS011;9900;48.738;9.306;2023-11-21T07:52:40;6.20;;;2.00;;
4652;SDS011;9900;48.738;9.306;2023-11-21T07:55:09;7.57;;;2.13;;
4652;SDS011;9900;48.738;9.306;2023-11-21T07:57:38;8.27;;;2.17;;
4652;SDS011;9900;48.738;9.306;2023-11-21T08:00:08;6.67;;;2.30;;
4652;SDS011;9900;48.738;9.306;2023-11-21T08:02:39;7.10;;;2.00;;
4652;SDS011;9900;48.738;9.306;2023-11-21T08:05:11;4.53;;;2.40;;
4652;SDS011;9900;48.738;9.306;2023-11-21T08:07:51;10.37;;;2.70;;
4652;SDS011;9900;48.738;9.306;2023-11-21T08:10:20;7.33;;;2.30;;
4652;SDS011;9900;48.738;9.306;2023-11-21T08:12:49;3.00;;;1.60;;
4652;SDS011;9900;48.738;9.306;2023-11-21T08:15:18;8.70;;;2.07;;
4652;SDS011;9900;48.738;9.306;2023-11-21T08:17:47;4.03;;;1.50;;
4652;SDS011;9900;48.738;9.306;2023-11-21T08:20:18;4.87;;;1.97;;
4652;SDS011;9900;48.738;9.306;2023-11-21T08:22:47;3.10;;;1.73;;
4652;SDS011;9900;48.738;9.306;2023-11-21T08:25:16;2.57;;;1.63;;
4652;SDS011;9900;48.738;9.306;2023-11-21T08:27:47;3.17;;;1.43;;
4652;SDS011;9900;48.738;9.306;2023-11-21T08:30:16;1.93;;;1.00;;
4652;SDS011;9900;48.738;9.306;2023-11-21T08:32:47;1.30;;;0.93;;
4652;SDS011;9900;48.738;9.306;2023-11-21T08:35:16;1.20;;;1.10;;
4652;SDS011;9900;48.738;9.306;2023-11-21T08:37:46;3.23;;;1.17;;
4652;SDS011;9900;48.738;9.306;2023-11-21T08:40:15;4.00;;;1.43;;
4652;SDS011;9900;48.738;9.306;2023-11-21T08:42:45;1.90;;;1.20;;
4652;SDS011;9900;48.738;9.306;2023-11-21T08:45:14;3.90;;;1.13;;
4652;SDS011;9900;48.738;9.306;2023-11-21T08:47:44;2.50;;;1.47;;
4652;SDS011;9900;48.738;9.306;2023-11-21T08:50:14;1.63;;;1.00;;
4652;SDS011;9900;48.738;9.306;2023-11-21T08:52:45;6.93;;;1.20;;
4652;SDS011;9900;48.738;9.306;2023-11-21T08:55:15;3.27;;;1.60;;
4652;SDS011;9900;48.738;9.306;2023-11-21T08:57:44;2.40;;;1.20;;
4652;SDS011;9900;48.738;9.306;2023-11-21T09:00:14;3.03;;;1.30;;
4652;SDS011;9900;48.738;9.306;2023-11-21T09:02:44;3.07;;;2.47;;
4652;SDS011;9900;48.738;9.306;2023-11-21T09:05:14;2.70;;;1.10;;
4652;SDS011;9900;48.738;9.306;2023-11-21T09:07:45;2.77;;;1.73;;
4652;SDS011;9900;48.738;9.306;2023-11-21T09:10:16;3.43;;;1.50;;
4652;SDS011;9900;48.738;9.306;2023-11-21T09:12:45;2.43;;;1.20;;
4652;SDS011;9900;48.738;9.306;2023-11-21T09:15:14;1.60;;;1.50;;
4652;SDS011;9900;48.738;9.306;2023-11-21T09:17:42;3.00;;;1.50;;
4652;SDS011;9900;48.738;9.306;2023-11-21T09:20:12;1.40;;;1.30;;
4652;SDS011;9900;48.738;9.306;2023-11-21T09:22:42;2.97;;;1.20;;
4652;SDS011;9900;48.738;9.306;2023-11-21T09:25:13;2.07;;;1.80;;
4652;SDS011;9900;48.738;9.306;2023-11-21T09:27:43;1.83;;;1.30;;
4652;SDS011;9900;48.738;9.306;2023-11-21T09:30:13;1.30;;;1.20;;
4652;SDS011;9900;48.738;9.306;2023-11-21T09:32:42;1.27;;;1.17;;
4652;SDS011;9900;48.738;9.306;2023-11-21T09:35:13;1.17;;;1.07;;
4652;SDS011;9900;48.738;9.306;2023-11-21T09:37:43;1.90;;;1.30;;
4652;SDS011;9900;48.738;9.306;2023-11-21T09:40:18;2.97;;;1.33;;
4652;SDS011;9900;48.738;9.306;2023-11-21T09:42:52;1.70;;;1.30;;
4652;SDS011;9900;48.738;9.306;2023-11-21T09:45:24;1.13;;;1.03;;
4652;SDS011;9900;48.738;9.306;2023-11-21T09:47:55;1.40;;;1.23;;
4652;SDS011;9900;48.738;9.306;2023-11-21T09:50:25;3.33;;;1.30;;
4652;SDS011;9900;48.738;9.306;2023-11-21T09:52:55;1.57;;;1.40;;
4652;SDS011;9900;48.738;9.306;2023-11-21T09:55:29;1.93;;;1.50;;
4652;SDS011;9900;48.738;9.306;2023-11-21T09:58:03;1.27;;;1.10;;
4652;SDS011;9900;48.738;9.306;2023-11-21T10:00:35;1.57;;;1.40;;
4652;SDS011;9900;48.738;9.306;2023-11-21T10:03:03;1.43;;;1.30;;
4652;SDS011;9900;48.738;9.306;2023-11-21T10:05:32;3.30;;;1.60;;
4652;SDS011;9900;48.738;9.306;2023-11-21T10:08:02;3.23;;;1.40;;
4652;SDS011;9900;48.738;9.306;2023-11-21T10:10:35;5.63;;;1.30;;
4652;SDS011;9900;48.738;9.306;2023-11-21T10:13:06;1.73;;;1.33;;
4652;SDS011;9900;48.738;9.306;2023-11-21T10:15:35;3.60;;;1.30;;
4652;SDS011;9900;48.738;9.306;2023-11-21T10:18:06;2.30;;;1.70;;
4652;SDS011;9900;48.738;9.306;2023-11-21T10:20:36;2.30;;;1.00;;
4652;SDS011;9900;48.738;9.306;2023-11-21T10:23:06;2.47;;;1.20;;
4652;SDS011;9900;48.738;9.306;2023-11-21T10:25:39;2.60;;;1.37;;
4652;SDS011;9900;48.738;9.306;2023-11-21T10:28:09;2.40;;;1.20;;
4652;SDS011;9900;48.738;9.306;2023-11-21T10:30:38;1.30;;;1.00;;
4652;SDS011;9900;48.738;9.306;2023-11-21T10:33:07;3.43;;;1.17;;
4652;SDS011;9900;48.738;9.306;2023-11-21T10:35:42;1.10;;;0.87;;
4652;SDS011;9900;48.738;9.306;2023-11-21T10:38:14;1.93;;;1.30;;
4652;SDS011;9900;48.738;9.306;2023-11-21T10:40:44;4.87;;;0.90;;
4652;SDS011;9900;48.738;9.306;2023-11-21T10:43:14;0.80;;;0.80;;
4652;SDS011;9900;48.738;9.306;2023-11-21T10:45:43;1.00;;;0.80;;
4652;SDS011;9900;48.738;9.306;2023-11-21T10:48:13;1.73;;;0.93;;
4652;SDS011;9900;48.738;9.306;2023-11-21T10:50:44;2.33;;;0.90;;
4652;SDS011;9900;48.738;9.306;2023-11-21T10:53:14;2.43;;;1.00;;
4652;SDS011;9900;48.738;9.306;2023-11-21T10:55:44;0.80;;;0.80;;
4652;SDS011;9900;48.738;9.306;2023-11-21T10:58:13;1.37;;;0.70;;
4652;SDS011;9900;48.738;9.306;2023-11-21T11:00:42;1.40;;;1.00;;
4652;SDS011;9900;48.738;9.306;2023-11-21T11:03:13;1.53;;;1.00;;
4652;SDS011;9900;48.738;9.306;2023-11-21T11:05:44;3.03;;;0.90;;
4652;SDS011;9900;48.738;9.306;2023-11-21T11:08:20;1.07;;;0.73;;
4652;SDS011;9900;48.738;9.306;2023-11-21T11:10:56;1.83;;;0.80;;
4652;SDS011;9900;48.738;9.306;2023-11-21T11:13:26;1.87;;;0.90;;
4652;SDS011;9900;48.738;9.306;2023-11-21T11:15:57;1.00;;;0.97;;
4652;SDS011;9900;48.738;9.306;2023-11-21T11:18:28;1.20;;;0.80;;
4652;SDS011;9900;48.738;9.306;2023-11-21T11:21:00;1.20;;;1.10;;
4652;SDS011;9900;48.738;9.306;2023-11-21T11:23:39;1.30;;;1.20;;
4652;SDS011;9900;48.738;9.306;2023-11-21T11:26:20;2.37;;;1.50;;
4652;SDS011;9900;48.738;9.306;2023-11-21T11:28:57;2.43;;;1.50;;
4652;SDS011;9900;48.738;9.306;2023-11-21T11:31:37;1.90;;;1.70;;
4652;SDS011;9900;48.738;9.306;2023-11-21T11:34:12;1.60;;;1.50;;
4652;SDS011;9900;48.738;9.306;2023-11-21T11:36:47;2.67;;;1.50;;
4652;SDS011;9900;48.738;9.306;2023-11-21T11:39:26;2.80;;;2.43;;
4652;SDS011;9900;48.738;9.306;2023-11-21T11:41:57;2.50;;;1.80;;
4652;SDS011;9900;48.738;9.306;2023-11-21T11:47:20;1.40;;;1.17;;
4652;SDS011;9900;48.738;9.306;2023-11-21T11:50:03;2.63;;;1.10;;
4652;SDS011;9900;48.738;9.306;2023-11-21T11:52:35;1.60;;;1.50;;
4652;SDS011;9900;48.738;9.306;2023-11-21T11:55:06;2.53;;;1.30;;
4652;SDS011;9900;48.738;9.306;2023-11-21T11:57:40;0.80;;;0.80;;
4652;SDS011;9900;48.738;9.306;2023-11-21T12:00:13;2.53;;;1.03;;
4652;SDS011;9900;48.738;9.306;2023-11-21T12:02:48;0.70;;;0.70;;
4652;SDS011;9900;48.738;9.306;2023-11-21T12:05:19;1.73;;;0.90;;
4652;SDS011;9900;48.738;9.306;2023-11-21T12:07:50;1.00;;;0.97;;
4652;SDS011;9900;48.738;9.306;2023-11-21T12:10:21;1.13;;;1.03;;
4652;SDS011;9900;48.738;9.306;2023-11-21T12:12:54;1.67;;;1.00;;
4652;SDS011;9900;48.738;9.306;2023-11-21T12:15:23;1.07;;;0.90;;
4652;SDS011;9900;48.738;9.306;2023-11-21T12:17:52;2.03;;;1.00;;
4652;SDS011;9900;48.738;9.306;2023-11-21T12:20:22;5.87;;;1.47;;
4652;SDS011;9900;48.738;9.306;2023-11-21T12:22:52;1.20;;;1.10;;
4652;SDS011;9900;48.738;9.306;2023-11-21T12:25:21;6.97;;;1.40;;
4652;SDS011;9900;48.738;9.306;2023-11-21T12:27:51;3.03;;;1.10;;
4652;SDS011;9900;48.738;9.306;2023-11-21T12:30:22;1.20;;;1.10;;
4652;SDS011;9900;48.738;9.306;2023-11-21T12:32:52;2.17;;;1.20;;
4652;SDS011;9900;48.738;9.306;2023-11-21T12:35:25;1.80;;;1.37;;
4652;SDS011;9900;48.738;9.306;2023-11-21T12:37:55;2.77;;;1.10;;
4652;SDS011;9900;48.738;9.306;2023-11-21T12:40:25;1.20;;;1.10;;
4652;SDS011;9900;48.738;9.306;2023-11-21T12:42:57;1.67;;;1.37;;
4652;SDS011;9900;48.738;9.306;2023-11-21T12:45:28;1.77;;;1.40;;
4652;SDS011;9900;48.738;9.306;2023-11-21T12:47:59;1.40;;;1.30;;
4652;SDS011;9900;48.738;9.306;2023-11-21T12:50:31;1.67;;;1.40;;
4652;SDS011;9900;48.738;9.306;2023-11-21T12:53:02;2.13;;;1.70;;
4652;SDS011;9900;48.738;9.306;2023-11-21T12:55:32;4.90;;;2.00;;
4652;SDS011;9900;48.738;9.306;2023-11-21T12:58:07;2.20;;;1.50;;
4652;SDS011;9900;48.738;9.306;2023-11-21T13:00:39;2.33;;;1.30;;
4652;SDS011;9900;48.738;9.306;2023-11-21T13:03:10;2.37;;;1.60;;
4652;SDS011;9900;48.738;9.306;2023-11-21T13:05:44;1.20;;;1.10;;
4652;SDS011;9900;48.738;9.306;2023-11-21T13:08:19;1.23;;;1.13;;
4652;SDS011;9900;48.738;9.306;2023-11-21T13:10:51;6.40;;;3.97;;
4652;SDS011;9900;48.738;9.306;2023-11-21T13:13:24;2.80;;;1.73;;
4652;SDS011;9900;48.738;9.306;2023-11-21T13:15:56;2.23;;;1.47;;
4652;SDS011;9900;48.738;9.306;2023-11-21T13:18:25;1.53;;;1.43;;
4652;SDS011;9900;48.738;9.306;2023-11-21T13:20:55;1.27;;;1.17;;
4652;SDS011;9900;48.738;9.306;2023-11-21T13:23:25;3.53;;;0.97;;
4652;SDS011;9900;48.738;9.306;2023-11-21T13:25:54;1.00;;;0.90;;
4652;SDS011;9900;48.738;9.306;2023-11-21T13:28:34;1.10;;;1.00;;
4652;SDS011;9900;48.738;9.306;2023-11-21T13:31:05;1.10;;;1.00;;
4652;SDS011;9900;48.738;9.306;2023-11-21T13:33:48;1.27;;;1.10;;
4652;SDS011;9900;48.738;9.306;2023-11-21T13:36:24;1.27;;;1.17;;
4652;SDS011;9900;48.738;9.306;2023-11-21T13:38:57;1.20;;;1.10;;
4652;SDS011;9900;48.738;9.306;2023-11-21T13:41:31;1.10;;;1.10;;
4652;SDS011;9900;48.738;9.306;2023-11-21T13:44:02;4.57;;;2.30;;
4652;SDS011;9900;48.738;9.306;2023-11-21T13:46:43;1.70;;;1.30;;
4652;SDS011;9900;48.738;9.306;2023-11-21T13:49:13;1.40;;;1.30;;
4652;SDS011;9900;48.738;9.306;2023-11-21T13:51:44;1.73;;;1.30;;
4652;SDS011;9900;48.738;9.306;2023-11-21T13:54:15;1.07;;;0.97;;
4652;SDS011;9900;48.738;9.306;2023-11-21T13:56:46;1.10;;;1.00;;
4652;SDS011;9900;48.738;9.306;2023-11-21T13:59:17;1.30;;;1.20;;
4652;SDS011;9900;48.738;9.306;2023-11-21T14:01:50;1.83;;;1.67;;
4652;SDS011;9900;48.738;9.306;2023-11-21T14:04:24;2.30;;;1.43;;
4652;SDS011;9900;48.738;9.306;2023-11-21T14:07:10;1.53;;;1.00;;
4652;SDS011;9900;48.738;9.306;2023-11-21T14:09:52;2.30;;;1.10;;
4652;SDS011;9900;48.738;9.306;2023-11-21T14:12:22;1.30;;;1.20;;
4652;SDS011;9900;48.738;9.306;2023-11-21T14:14:52;1.77;;;1.60;;
4652;SDS011;9900;48.738;9.306;2023-11-21T14:17:22;2.50;;;2.30;;
4652;SDS011;9900;48.738;9.306;2023-11-21T14:19:52;1.83;;;1.50;;
4652;SDS011;9900;48.738;9.306;2023-11-21T14:22:23;1.30;;;1.20;;
4652;SDS011;9900;48.738;9.306;2023-11-21T14:24:53;1.47;;;1.37;;
4652;SDS011;9900;48.738;9.306;2023-11-21T14:27:26;1.50;;;1.23;;
4652;SDS011;9900;48.738;9.306;2023-11-21T14:29:57;1.30;;;1.20;;
4652;SDS011;9900;48.738;9.306;2023-11-21T14:32:26;2.50;;;1.50;;
4652;SDS011;9900;48.738;9.306;2023-11-21T14:34:55;6.93;;;1.60;;
4652;SDS011;9900;48.738;9.306;2023-11-21T14:37:25;1.87;;;1.37;;
4652;SDS011;9900;48.738;9.306;2023-11-21T14:39:53;1.80;;;1.47;;
4652;SDS011;9900;48.738;9.306;2023-11-21T14:42:23;1.40;;;1.17;;
4652;SDS011;9900;48.738;9.306;2023-11-21T14:44:58;1.43;;;1.33;;
4652;SDS011;9900;48.738;9.306;2023-11-21T14:47:30;2.73;;;1.60;;
4652;SDS011;9900;48.738;9.306;2023-11-21T14:50:00;0.80;;;0.80;;
4652;SDS011;9900;48.738;9.306;2023-11-21T14:52:49;1.20;;;1.00;;
4652;SDS011;9900;48.738;9.306;2023-11-21T14:55:23;2.20;;;0.90;;
4652;SDS011;9900;48.738;9.306;2023-11-21T14:57:59;1.23;;;1.13;;
4652;SDS011;9900;48.738;9.306;2023-11-21T15:00:32;1.10;;;1.00;;
4652;SDS011;9900;48.738;9.306;2023-11-21T15:03:12;1.13;;;0.93;;
4652;SDS011;9900;48.738;9.306;2023-11-21T15:06:02;1.00;;;0.90;;
4652;SDS011;9900;48.738;9.306;2023-11-21T15:08:49;1.40;;;1.30;;
4652;SDS011;9900;48.738;9.306;2023-11-21T15:11:23;1.20;;;1.00;;
4652;SDS011;9900;48.738;9.306;2023-11-21T15:13:58;1.20;;;1.10;;
4652;SDS011;9900;48.738;9.306;2023-11-21T15:16:29;1.17;;;1.10;;
4652;SDS011;9900;48.738;9.306;2023-11-21T15:18:58;2.60;;;1.10;;
4652;SDS011;9900;48.738;9.306;2023-11-21T15:21:27;1.17;;;1.10;;
4652;SDS011;9900;48.738;9.306;2023-11-21T15:23:56;1.17;;;1.07;;
4652;SDS011;9900;48.738;9.306;2023-11-21T15:26:25;1.40;;;1.07;;
4652;SDS011;9900;48.738;9.306;2023-11-21T15:28:57;1.00;;;0.90;;
4652;SDS011;9900;48.738;9.306;2023-11-21T15:31:25;1.47;;;1.00;;
4652;SDS011;9900;48.738;9.306;2023-11-21T15:33:56;1.10;;;1.00;;
4652;SDS011;9900;48.738;9.306;2023-11-21T15:36:27;1.10;;;0.93;;
4652;SDS011;9900;48.738;9.306;2023-11-21T15:38:56;1.33;;;1.20;;